createdAt,value
2023-05-09T00:00:50.948Z,59.92
2023-05-09T00:01:51.054Z,60.24
2023-05-09T00:02:50.932Z,60.09
2023-05-09T00:03:50.956Z,59.88
2023-05-09T00:04:51.002Z,59.79
2023-05-09T00:05:50.946Z,59.96
2023-05-09T00:06:50.940Z,59.81
2023-05-09T00:07:50.925Z,59.74
2023-05-09T00:08:50.937Z,59.72
2023-05-09T00:09:50.917Z,59.74
2023-05-09T00:10:50.955Z,59.97
2023-05-09T00:11:50.941Z,59.82
2023-05-09T00:12:50.976Z,60.04
2023-05-09T00:13:50.997Z,59.72
2023-05-09T00:14:50.954Z,59.72
2023-05-09T00:15:51.013Z,59.84
2023-05-09T00:16:51.071Z,59.90
2023-05-09T00:17:51.052Z,59.75
2023-05-09T00:18:50.961Z,59.70
2023-05-09T00:19:50.929Z,59.95
2023-05-09T00:20:50.941Z,60.28
2023-05-09T00:21:50.965Z,60.52
2023-05-09T00:22:50.982Z,60.47
2023-05-09T00:23:50.987Z,60.39
2023-05-09T00:24:50.950Z,60.54
2023-05-09T00:25:50.998Z,60.60
2023-05-09T00:26:50.977Z,60.32
2023-05-09T00:27:50.992Z,60.21
2023-05-09T00:28:50.989Z,60.03
2023-05-09T00:29:51.012Z,60.05
2023-05-09T00:30:51.016Z,59.91
2023-05-09T00:31:51.183Z,60.16
2023-05-09T00:32:51.036Z,60.02
2023-05-09T00:33:50.998Z,59.55
2023-05-09T00:34:51.004Z,59.66
2023-05-09T00:35:51.027Z,59.59
2023-05-09T00:36:51.020Z,59.64
2023-05-09T00:37:51.029Z,59.77
2023-05-09T00:38:51.035Z,59.80
2023-05-09T00:39:51.026Z,59.69
2023-05-09T00:40:51.035Z,59.82
2023-05-09T00:41:51.087Z,59.83
2023-05-09T00:42:51.045Z,60.01
2023-05-09T00:43:51.019Z,59.99
2023-05-09T00:44:51.021Z,59.89
2023-05-09T00:45:50.997Z,59.94
2023-05-09T00:46:51.075Z,59.89
2023-05-09T00:47:51.043Z,59.87
2023-05-09T00:48:51.003Z,59.96
2023-05-09T00:49:51.029Z,60.04
2023-05-09T00:50:51.043Z,59.86
2023-05-09T00:51:50.998Z,59.89
2023-05-09T00:52:51.033Z,59.98
2023-05-09T00:53:51.034Z,60.15
2023-05-09T00:54:51.032Z,60.33
2023-05-09T00:55:51.048Z,60.36
2023-05-09T00:56:51.033Z,60.36
2023-05-09T00:57:51.045Z,60.17
2023-05-09T00:58:51.064Z,60.26
2023-05-09T00:59:51.057Z,60.32
2023-05-09T01:00:51.043Z,60.38
2023-05-09T01:01:51.202Z,60.36
2023-05-09T01:02:51.145Z,60.17
2023-05-09T01:03:51.149Z,59.76
2023-05-09T01:04:51.038Z,59.84
2023-05-09T01:05:51.076Z,60.11
2023-05-09T01:06:51.099Z,60.01
2023-05-09T01:07:51.064Z,60.14
2023-05-09T01:08:51.076Z,60.04
2023-05-09T01:09:51.129Z,59.65
2023-05-09T01:10:51.103Z,59.54
2023-05-09T01:11:51.601Z,59.60
2023-05-09T01:12:51.195Z,59.64
2023-05-09T01:13:51.154Z,59.55
2023-05-09T01:14:51.116Z,59.54
2023-05-09T01:15:51.187Z,59.63
2023-05-09T01:16:51.136Z,59.60
2023-05-09T01:17:51.240Z,59.64
2023-05-09T01:18:51.153Z,59.86
2023-05-09T01:19:51.218Z,59.90
2023-05-09T01:20:51.126Z,59.87
2023-05-09T01:21:51.182Z,59.66
2023-05-09T01:22:51.163Z,59.55
2023-05-09T01:23:51.168Z,59.60
2023-05-09T01:24:51.178Z,59.48
2023-05-09T01:25:51.184Z,59.58
2023-05-09T01:26:51.587Z,59.62
2023-05-09T01:27:51.148Z,59.69
2023-05-09T01:28:51.151Z,59.78
2023-05-09T01:29:51.178Z,59.85
2023-05-09T01:30:51.141Z,59.90
2023-05-09T01:31:51.253Z,60.00
2023-05-09T01:32:51.192Z,60.15
2023-05-09T01:33:51.139Z,60.20
2023-05-09T01:34:51.134Z,59.94
2023-05-09T01:35:51.231Z,59.65
2023-05-09T01:36:51.161Z,59.30
2023-05-09T01:37:51.159Z,59.41
2023-05-09T01:38:51.130Z,59.43
2023-05-09T01:39:51.127Z,59.38
2023-05-09T01:40:51.148Z,59.39
2023-05-09T01:41:51.604Z,59.44
2023-05-09T01:42:51.134Z,59.69
2023-05-09T01:43:51.159Z,59.68
2023-05-09T01:44:51.096Z,59.64
2023-05-09T01:45:51.135Z,60.05
2023-05-09T01:46:51.608Z,59.96
2023-05-09T01:47:51.178Z,59.98
2023-05-09T01:48:51.134Z,59.79
2023-05-09T01:49:51.123Z,59.63
2023-05-09T01:50:51.151Z,59.61
2023-05-09T01:51:51.183Z,59.54
2023-05-09T01:52:51.113Z,59.76
2023-05-09T01:53:51.137Z,60.04
2023-05-09T01:54:51.126Z,60.16
2023-05-09T01:55:51.124Z,59.95
2023-05-09T01:56:51.625Z,59.93
2023-05-09T01:57:51.151Z,60.12
2023-05-09T01:58:51.141Z,59.67
2023-05-09T01:59:51.208Z,59.48
2023-05-09T02:00:51.214Z,59.63
2023-05-09T02:01:51.621Z,59.92
2023-05-09T02:02:51.291Z,59.75
2023-05-09T02:03:51.191Z,59.99
2023-05-09T02:04:51.191Z,59.82
2023-05-09T02:05:51.176Z,60.02
2023-05-09T02:06:51.181Z,60.49
2023-05-09T02:07:51.264Z,60.76
2023-05-09T02:08:51.168Z,60.90
2023-05-09T02:09:51.228Z,61.09
2023-05-09T02:10:51.250Z,61.15
2023-05-09T02:11:51.199Z,61.63
2023-05-09T02:12:51.246Z,61.72
2023-05-09T02:13:51.183Z,61.74
2023-05-09T02:14:51.213Z,61.55
2023-05-09T02:15:51.209Z,61.72
2023-05-09T02:16:51.243Z,61.59
2023-05-09T02:17:51.340Z,61.37
2023-05-09T02:18:51.242Z,61.42
2023-05-09T02:19:51.191Z,61.26
2023-05-09T02:20:51.252Z,61.52
2023-05-09T02:21:51.621Z,61.40
2023-05-09T02:22:51.251Z,61.49
2023-05-09T02:23:51.342Z,61.27
2023-05-09T02:24:51.279Z,61.18
2023-05-09T02:25:51.299Z,60.93
2023-05-09T02:26:51.321Z,60.88
2023-05-09T02:27:51.308Z,60.69
2023-05-09T02:28:51.313Z,60.71
2023-05-09T02:29:51.409Z,60.85
2023-05-09T02:30:51.367Z,60.72
2023-05-09T02:31:51.648Z,60.83
2023-05-09T02:32:51.397Z,61.10
2023-05-09T02:33:51.375Z,60.99
2023-05-09T02:34:51.400Z,60.76
2023-05-09T02:35:51.409Z,60.68
2023-05-09T02:36:51.769Z,60.89
2023-05-09T02:37:51.440Z,61.02
2023-05-09T02:38:51.424Z,60.99
2023-05-09T02:39:51.479Z,61.03
2023-05-09T02:40:52.388Z,60.95
2023-05-09T02:41:51.660Z,61.06
2023-05-09T02:42:51.546Z,61.14
2023-05-09T02:43:51.567Z,61.07
2023-05-09T02:44:51.562Z,61.10
2023-05-09T02:45:51.623Z,61.06
2023-05-09T02:46:51.624Z,60.91
2023-05-09T02:47:51.666Z,60.88
2023-05-09T02:48:51.661Z,61.00
2023-05-09T02:49:51.720Z,60.92
2023-05-09T02:50:51.715Z,61.12
2023-05-09T02:51:51.738Z,61.08
2023-05-09T02:52:51.768Z,61.09
2023-05-09T02:53:51.766Z,61.04
2023-05-09T02:54:51.790Z,60.93
2023-05-09T02:55:51.886Z,60.82
2023-05-09T02:56:51.878Z,60.95
2023-05-09T02:57:58.949Z,60.76
2023-05-09T02:58:52.824Z,60.85
2023-05-09T02:59:51.835Z,60.87
2023-05-09T03:00:51.829Z,60.74
2023-05-09T03:01:51.909Z,60.60
2023-05-09T03:02:52.164Z,60.69
2023-05-09T03:03:51.897Z,60.54
2023-05-09T03:04:51.815Z,60.59
2023-05-09T03:05:51.810Z,60.60
2023-05-09T03:06:51.781Z,60.76
2023-05-09T03:07:51.769Z,60.84
2023-05-09T03:08:51.761Z,60.78
2023-05-09T03:09:51.747Z,60.94
2023-05-09T03:10:51.764Z,60.93
2023-05-09T03:11:52.700Z,60.74
2023-05-09T03:12:51.772Z,60.66
2023-05-09T03:13:51.785Z,60.72
2023-05-09T03:14:51.794Z,60.67
2023-05-09T03:15:51.854Z,61.03
2023-05-09T03:16:51.898Z,60.73
2023-05-09T03:17:51.919Z,60.58
2023-05-09T03:18:51.962Z,60.73
2023-05-09T03:19:52.010Z,60.95
2023-05-09T03:20:52.020Z,60.72
2023-05-09T03:21:52.038Z,60.71
2023-05-09T03:22:52.155Z,60.85
2023-05-09T03:23:52.069Z,60.66
2023-05-09T03:24:52.154Z,60.83
2023-05-09T03:25:52.160Z,60.60
2023-05-09T03:26:52.290Z,60.65
2023-05-09T03:27:52.334Z,60.75
2023-05-09T03:28:52.286Z,60.81
2023-05-09T03:29:52.290Z,60.88
2023-05-09T03:30:52.317Z,60.84
2023-05-09T03:31:52.527Z,60.79
2023-05-09T03:32:52.485Z,60.79
2023-05-09T03:33:52.448Z,60.82
2023-05-09T03:34:52.559Z,60.75
2023-05-09T03:35:52.524Z,60.72
2023-05-09T03:36:52.582Z,60.84
2023-05-09T03:37:52.603Z,60.86
2023-05-09T03:38:52.650Z,60.89
2023-05-09T03:39:52.709Z,60.77
2023-05-09T03:40:52.777Z,60.84
2023-05-09T03:41:52.772Z,60.83
2023-05-09T03:42:52.824Z,61.23
2023-05-09T03:43:52.944Z,61.17
2023-05-09T03:44:52.852Z,61.08
2023-05-09T03:45:52.932Z,61.49
2023-05-09T03:46:52.997Z,61.47
2023-05-09T03:47:53.054Z,61.57
2023-05-09T03:48:53.026Z,61.47
2023-05-09T03:49:53.088Z,61.49
2023-05-09T03:50:53.091Z,61.53
2023-05-09T03:51:53.169Z,61.61
2023-05-09T03:52:53.187Z,61.37
2023-05-09T03:53:53.231Z,61.96
2023-05-09T03:54:53.271Z,61.93
2023-05-09T03:55:53.287Z,61.89
2023-05-09T03:56:53.329Z,61.90
2023-05-09T03:57:53.357Z,61.57
2023-05-09T03:58:53.418Z,61.81
2023-05-09T03:59:53.480Z,61.76
2023-05-09T04:00:53.454Z,61.76
2023-05-09T04:01:53.531Z,61.73
2023-05-09T04:02:53.671Z,61.70
2023-05-09T04:03:53.622Z,61.68
2023-05-09T04:04:53.593Z,61.71
2023-05-09T04:05:53.613Z,61.79
2023-05-09T04:06:53.612Z,61.50
2023-05-09T04:07:53.669Z,61.42
2023-05-09T04:08:53.647Z,61.16
2023-05-09T04:09:53.719Z,61.49
2023-05-09T04:10:53.761Z,61.81
2023-05-09T04:11:53.741Z,61.90
2023-05-09T04:12:53.810Z,61.98
2023-05-09T04:13:53.813Z,61.98
2023-05-09T04:14:53.821Z,61.87
2023-05-09T04:15:53.956Z,61.93
2023-05-09T04:16:53.999Z,61.84
2023-05-09T04:17:54.008Z,61.82
2023-05-09T04:18:53.908Z,61.93
2023-05-09T04:19:54.000Z,61.82
2023-05-09T04:20:53.977Z,61.72
2023-05-09T04:21:54.010Z,61.39
2023-05-09T04:22:54.007Z,61.74
2023-05-09T04:23:54.038Z,61.87
2023-05-09T04:24:54.091Z,62.22
2023-05-09T04:25:54.059Z,62.39
2023-05-09T04:26:54.122Z,62.73
2023-05-09T04:27:54.164Z,63.35
2023-05-09T04:28:54.217Z,63.32
2023-05-09T04:29:54.185Z,62.99
2023-05-09T04:30:54.287Z,63.41
2023-05-09T04:31:54.485Z,63.28
2023-05-09T04:32:54.354Z,63.03
2023-05-09T04:33:54.295Z,63.37
2023-05-09T04:34:54.336Z,63.09
2023-05-09T04:35:54.347Z,63.63
2023-05-09T04:36:54.373Z,63.63
2023-05-09T04:37:54.432Z,63.66
2023-05-09T04:38:54.458Z,63.58
2023-05-09T04:39:54.477Z,63.21
2023-05-09T04:40:54.532Z,63.10
2023-05-09T04:41:54.557Z,62.82
2023-05-09T04:42:54.638Z,63.06
2023-05-09T04:43:54.642Z,63.02
2023-05-09T04:44:54.683Z,62.92
2023-05-09T04:45:54.714Z,63.08
2023-05-09T04:46:54.799Z,63.25
2023-05-09T04:47:55.265Z,63.51
2023-05-09T04:48:54.842Z,63.38
2023-05-09T04:49:54.836Z,63.28
2023-05-09T04:50:54.919Z,63.06
2023-05-09T04:51:55.011Z,63.59
2023-05-09T04:52:55.009Z,63.08
2023-05-09T04:53:55.052Z,62.93
2023-05-09T04:54:55.075Z,62.90
2023-05-09T04:55:55.138Z,62.79
2023-05-09T04:57:55.254Z,62.40
2023-05-09T04:58:55.238Z,62.33
2023-05-09T04:59:55.296Z,62.37
2023-05-09T05:00:55.322Z,62.43
2023-05-09T05:01:55.380Z,62.40
2023-05-09T05:02:55.700Z,62.27
2023-05-09T05:03:55.575Z,62.35
2023-05-09T05:05:03.016Z,62.34
2023-05-09T05:05:56.479Z,62.32
2023-05-09T05:06:55.510Z,62.08
2023-05-09T05:07:55.559Z,62.38
2023-05-09T05:08:55.523Z,61.96
2023-05-09T05:09:55.484Z,61.97
2023-05-09T05:10:55.447Z,61.93
2023-05-09T05:11:59.879Z,61.64
2023-05-09T05:12:56.492Z,61.73
2023-05-09T05:13:55.458Z,61.49
2023-05-09T05:14:55.473Z,61.69
2023-05-09T05:15:55.451Z,61.59
2023-05-09T05:16:55.422Z,61.48
2023-05-09T05:17:55.452Z,61.42
2023-05-09T05:18:55.434Z,61.41
2023-05-09T05:19:55.496Z,62.12
2023-05-09T05:20:55.396Z,61.73
2023-05-09T05:21:55.406Z,61.85
2023-05-09T05:22:55.374Z,61.68
2023-05-09T05:23:55.354Z,61.68
2023-05-09T05:24:55.439Z,61.52
2023-05-09T05:25:55.442Z,61.27
2023-05-09T05:26:55.495Z,61.30
2023-05-09T05:27:55.548Z,61.40
2023-05-09T05:28:55.559Z,61.41
2023-05-09T05:29:55.610Z,61.22
2023-05-09T05:30:55.652Z,61.39
2023-05-09T05:31:55.836Z,61.29
2023-05-09T05:32:55.784Z,61.34
2023-05-09T05:33:55.755Z,60.95
2023-05-09T05:34:55.794Z,60.84
2023-05-09T05:35:55.932Z,60.95
2023-05-09T05:36:55.854Z,60.98
2023-05-09T05:37:55.881Z,60.66
2023-05-09T05:38:55.960Z,60.53
2023-05-09T05:39:55.980Z,60.56
2023-05-09T05:40:55.992Z,60.49
2023-05-09T05:41:56.005Z,60.57
2023-05-09T05:42:56.202Z,61.14
2023-05-09T05:43:56.590Z,61.69
2023-05-09T05:44:56.065Z,61.01
2023-05-09T05:45:56.182Z,60.66
2023-05-09T05:46:56.161Z,60.60
2023-05-09T05:47:56.168Z,60.67
2023-05-09T05:48:56.176Z,60.76
2023-05-09T05:49:56.219Z,60.34
2023-05-09T05:50:56.171Z,60.30
2023-05-09T05:51:56.292Z,60.82
2023-05-09T05:52:56.668Z,60.53
2023-05-09T05:53:56.203Z,60.22
2023-05-09T05:54:56.249Z,59.71
2023-05-09T05:55:56.247Z,59.85
2023-05-09T05:56:56.248Z,59.70
2023-05-09T05:57:56.703Z,59.43
2023-05-09T05:58:56.267Z,59.78
2023-05-09T05:59:56.235Z,59.27
2023-05-09T06:00:56.284Z,59.10
2023-05-09T06:01:56.305Z,59.70
2023-05-09T06:02:56.769Z,60.52
2023-05-09T06:03:56.443Z,60.84
2023-05-09T06:04:56.335Z,60.49
2023-05-09T06:05:56.283Z,60.71
2023-05-09T06:06:56.297Z,60.26
2023-05-09T06:07:56.358Z,60.04
2023-05-09T06:08:56.288Z,60.22
2023-05-09T06:09:56.274Z,59.97
2023-05-09T06:10:56.308Z,59.91
2023-05-09T06:11:56.314Z,59.86
2023-05-09T06:12:56.379Z,60.04
2023-05-09T06:13:56.331Z,59.88
2023-05-09T06:14:56.340Z,59.98
2023-05-09T06:15:59.756Z,60.35
2023-05-09T06:16:57.463Z,60.25
2023-05-09T06:17:56.468Z,60.09
2023-05-09T06:18:56.444Z,60.06
2023-05-09T06:19:56.344Z,60.34
2023-05-09T06:20:56.345Z,60.14
2023-05-09T06:21:56.316Z,60.01
2023-05-09T06:22:56.316Z,59.96
2023-05-09T06:24:56.283Z,60.05
2023-05-09T06:25:56.288Z,60.27
2023-05-09T06:26:56.303Z,60.48
2023-05-09T06:27:56.293Z,60.49
2023-05-09T06:28:56.276Z,60.23
2023-05-09T06:29:56.275Z,60.15
2023-05-09T06:30:56.289Z,59.92
2023-05-09T06:31:56.293Z,60.00
2023-05-09T06:32:56.325Z,59.67
2023-05-09T06:33:56.264Z,60.03
2023-05-09T06:34:56.251Z,59.96
2023-05-09T06:35:56.242Z,60.25
2023-05-09T06:36:56.210Z,59.98
2023-05-09T06:37:56.235Z,60.25
2023-05-09T06:38:56.285Z,62.68
2023-05-09T06:39:56.314Z,62.86
2023-05-09T06:40:56.263Z,62.06
2023-05-09T06:41:56.166Z,58.82
2023-05-09T06:42:56.713Z,60.73
2023-05-09T06:43:56.221Z,61.03
2023-05-09T06:44:56.229Z,60.14
2023-05-09T06:45:56.186Z,58.02
2023-05-09T06:46:56.189Z,58.81
2023-05-09T06:47:56.245Z,59.08
2023-05-09T06:48:56.166Z,58.69
2023-05-09T06:49:56.144Z,58.63
2023-05-09T06:50:56.146Z,58.23
2023-05-09T06:51:56.123Z,57.92
2023-05-09T06:52:56.118Z,57.61
2023-05-09T06:53:56.144Z,57.57
2023-05-09T06:54:56.124Z,57.40
2023-05-09T06:55:56.223Z,57.00
2023-05-09T06:56:56.099Z,56.62
2023-05-09T06:57:56.106Z,56.65
2023-05-09T06:58:56.199Z,56.62
2023-05-09T06:59:56.095Z,56.13
2023-05-09T07:00:56.098Z,55.93
2023-05-09T07:01:56.104Z,56.06
2023-05-09T07:02:56.108Z,56.15
2023-05-09T07:03:56.107Z,55.89
2023-05-09T07:04:56.177Z,55.57
2023-05-09T07:05:56.033Z,55.40
2023-05-09T07:06:56.050Z,55.49
2023-05-09T07:07:56.032Z,55.46
2023-05-09T07:08:56.033Z,55.34
2023-05-09T07:10:07.375Z,55.52
2023-05-09T07:10:56.995Z,55.17
2023-05-09T07:13:06.207Z,56.07
2023-05-09T07:14:06.129Z,55.97
2023-05-09T07:15:06.080Z,56.19
2023-05-09T07:16:06.167Z,55.96
2023-05-09T07:17:21.816Z,55.73
2023-05-09T07:18:07.097Z,55.89
2023-05-09T07:19:06.078Z,55.60
2023-05-09T07:20:06.062Z,55.78
2023-05-09T07:21:06.032Z,55.96
2023-05-09T07:22:06.070Z,55.90
2023-05-09T07:23:06.192Z,55.63
2023-05-09T07:24:06.026Z,55.65
2023-05-09T07:25:06.003Z,55.75
2023-05-09T07:26:06.036Z,56.11
2023-05-09T07:27:05.994Z,55.62
2023-05-09T07:28:06.304Z,55.32
2023-05-09T07:29:06.069Z,55.68
2023-05-09T07:30:05.946Z,54.69
2023-05-09T07:31:05.968Z,54.68
2023-05-09T07:32:06.037Z,54.49
2023-05-09T07:33:06.077Z,55.42
2023-05-09T07:34:05.966Z,55.18
2023-05-09T07:35:06.021Z,55.62
2023-05-09T07:36:06.074Z,55.51
2023-05-09T07:37:06.032Z,55.63
2023-05-09T07:38:06.069Z,55.93
2023-05-09T07:39:06.293Z,55.98
2023-05-09T07:40:06.084Z,55.61
2023-05-09T07:41:06.038Z,56.18
2023-05-09T07:42:06.013Z,56.92
2023-05-09T07:43:06.039Z,57.30
2023-05-09T07:44:06.323Z,57.00
2023-05-09T07:45:06.156Z,56.67
2023-05-09T07:46:06.053Z,55.35
2023-05-09T07:47:05.986Z,55.30
2023-05-09T07:48:06.016Z,54.96
2023-05-09T07:49:06.034Z,54.41
2023-05-09T07:50:05.989Z,54.43
2023-05-09T07:51:06.959Z,54.53
2023-05-09T07:52:05.977Z,54.86
2023-05-09T07:53:06.777Z,55.00
2023-05-09T07:54:05.914Z,55.04
2023-05-09T07:55:05.986Z,55.26
2023-05-09T07:56:05.905Z,55.77
2023-05-09T07:57:05.916Z,55.64
2023-05-09T07:58:05.900Z,54.96
2023-05-09T07:59:05.960Z,55.75
2023-05-09T08:00:05.957Z,55.67
2023-05-09T08:01:06.108Z,55.85
2023-05-09T08:02:06.086Z,56.29
2023-05-09T08:03:06.377Z,55.70
2023-05-09T08:04:06.369Z,55.25
2023-05-09T08:05:06.263Z,54.93
2023-05-09T08:06:06.320Z,56.01
2023-05-09T08:07:06.323Z,55.83
2023-05-09T08:08:06.404Z,55.98
2023-05-09T08:09:06.791Z,55.33
2023-05-09T08:10:06.484Z,55.43
2023-05-09T08:11:06.554Z,55.74
2023-05-09T08:12:06.581Z,55.71
2023-05-09T08:13:06.684Z,56.21
2023-05-09T08:14:06.715Z,56.21
2023-05-09T08:15:06.717Z,56.88
2023-05-09T08:16:06.809Z,57.18
2023-05-09T08:17:06.879Z,56.26
2023-05-09T08:18:06.905Z,55.85
2023-05-09T08:19:07.285Z,55.78
2023-05-09T08:20:06.885Z,56.00
2023-05-09T08:21:06.910Z,55.90
2023-05-09T08:22:06.943Z,55.14
2023-05-09T08:23:07.016Z,55.57
2023-05-09T08:24:07.078Z,54.82
2023-05-09T08:25:07.094Z,54.64
2023-05-09T08:26:07.151Z,54.78
2023-05-09T08:27:07.152Z,55.10
2023-05-09T08:28:07.223Z,54.17
2023-05-09T08:29:07.341Z,54.69
2023-05-09T08:30:07.227Z,54.50
2023-05-09T08:31:07.269Z,54.42
2023-05-09T08:32:07.309Z,53.97
2023-05-09T08:33:07.326Z,54.24
2023-05-09T08:34:07.303Z,53.92
2023-05-09T08:35:07.317Z,54.95
2023-05-09T08:36:07.329Z,54.96
2023-05-09T08:37:07.388Z,55.06
2023-05-09T08:38:07.436Z,54.14
2023-05-09T08:39:07.805Z,54.22
2023-05-09T08:40:07.561Z,53.55
2023-05-09T08:41:07.615Z,53.61
2023-05-09T08:42:07.671Z,53.26
2023-05-09T08:43:07.754Z,53.18
2023-05-09T08:44:07.811Z,54.22
2023-05-09T08:45:07.812Z,53.94
2023-05-09T08:46:07.894Z,53.02
2023-05-09T08:47:07.857Z,53.96
2023-05-09T08:48:07.937Z,53.99
2023-05-09T08:49:08.532Z,53.52
2023-05-09T08:50:07.999Z,53.11
2023-05-09T08:51:08.018Z,52.91
2023-05-09T08:52:08.056Z,53.17
2023-05-09T08:53:08.055Z,52.06
2023-05-09T08:54:08.340Z,53.04
2023-05-09T08:55:08.053Z,51.91
2023-05-09T08:56:08.050Z,51.72
2023-05-09T08:57:08.055Z,51.70
2023-05-09T08:58:08.107Z,50.14
2023-05-09T08:59:08.165Z,50.20
2023-05-09T09:00:08.153Z,49.55
2023-05-09T09:01:08.180Z,49.39
2023-05-09T09:02:08.326Z,50.19
2023-05-09T09:03:08.289Z,50.49
2023-05-09T09:04:08.328Z,50.40
2023-05-09T09:05:16.115Z,51.14
2023-05-09T09:06:09.292Z,51.95
2023-05-09T09:07:08.261Z,52.18
2023-05-09T09:08:08.288Z,52.81
2023-05-09T09:09:08.308Z,52.65
2023-05-09T09:10:08.265Z,52.55
2023-05-09T09:11:08.261Z,52.27
2023-05-09T09:12:08.260Z,52.24
2023-05-09T09:13:08.306Z,52.37
2023-05-09T09:14:08.208Z,51.08
2023-05-09T09:15:08.193Z,51.36
2023-05-09T09:16:08.210Z,51.10
2023-05-09T09:17:08.216Z,51.01
2023-05-09T09:18:08.238Z,51.14
2023-05-09T09:19:08.326Z,51.22
2023-05-09T09:20:08.185Z,50.64
2023-05-09T09:21:08.319Z,49.19
2023-05-09T09:22:08.199Z,50.18
2023-05-09T09:23:08.277Z,49.56
2023-05-09T09:24:08.317Z,49.79
2023-05-09T09:25:08.353Z,49.32
2023-05-09T09:26:08.433Z,49.41
2023-05-09T09:27:08.506Z,49.93
2023-05-09T09:28:08.579Z,48.93
2023-05-09T09:29:08.629Z,49.19
2023-05-09T09:30:08.709Z,48.71
2023-05-09T09:31:08.779Z,49.16
2023-05-09T09:32:08.966Z,49.23
2023-05-09T09:33:08.992Z,49.67
2023-05-09T09:34:08.965Z,50.47
2023-05-09T09:35:08.963Z,49.93
2023-05-09T09:36:09.041Z,48.78
2023-05-09T09:37:09.220Z,48.31
2023-05-09T09:38:09.130Z,47.84
2023-05-09T09:39:09.341Z,48.01
2023-05-09T09:40:09.279Z,51.16
2023-05-09T09:41:09.305Z,51.55
2023-05-09T09:42:09.340Z,50.47
2023-05-09T09:43:09.319Z,50.90
2023-05-09T09:44:09.841Z,50.38
2023-05-09T09:45:09.320Z,49.06
2023-05-09T09:46:09.471Z,48.12
2023-05-09T09:47:09.324Z,48.25
2023-05-09T09:48:09.361Z,50.30
2023-05-09T09:49:09.824Z,50.72
2023-05-09T09:50:09.431Z,49.40
2023-05-09T09:51:09.407Z,49.30
2023-05-09T09:52:09.364Z,49.15
2023-05-09T09:53:09.388Z,49.08
2023-05-09T09:54:09.395Z,48.43
2023-05-09T09:55:09.399Z,47.85
2023-05-09T09:56:09.439Z,47.93
2023-05-09T09:57:09.410Z,49.30
2023-05-09T09:58:09.446Z,48.59
2023-05-09T09:59:09.502Z,47.94
2023-05-09T10:00:09.582Z,46.97
2023-05-09T10:01:09.678Z,46.58
2023-05-09T10:02:09.701Z,46.70
2023-05-09T10:03:09.856Z,47.89
2023-05-09T10:04:09.953Z,47.34
2023-05-09T10:05:09.890Z,47.33
2023-05-09T10:06:09.901Z,46.46
2023-05-09T10:07:11.547Z,46.24
2023-05-09T10:08:09.987Z,46.19
2023-05-09T10:09:10.421Z,46.05
2023-05-09T10:10:10.005Z,46.81
2023-05-09T10:11:10.005Z,47.08
2023-05-09T10:12:09.973Z,47.14
2023-05-09T10:13:10.023Z,46.85
2023-05-09T10:14:10.354Z,45.87
2023-05-09T10:15:09.958Z,45.97
2023-05-09T10:16:10.067Z,46.14
2023-05-09T10:17:09.973Z,45.87
2023-05-09T10:18:10.162Z,45.92
2023-05-09T10:19:10.456Z,46.35
2023-05-09T10:20:09.910Z,45.54
2023-05-09T10:21:09.967Z,47.33
2023-05-09T10:22:09.894Z,46.71
2023-05-09T10:23:09.909Z,46.49
2023-05-09T10:24:10.367Z,46.70
2023-05-09T10:25:09.928Z,46.24
2023-05-09T10:26:09.874Z,45.63
2023-05-09T10:27:09.864Z,45.47
2023-05-09T10:28:09.882Z,45.29
2023-05-09T10:29:09.834Z,44.92
2023-05-09T10:30:09.843Z,45.05
2023-05-09T10:31:09.872Z,44.11
2023-05-09T10:32:09.797Z,43.89
2023-05-09T10:33:09.865Z,44.06
2023-05-09T10:34:09.874Z,43.31
2023-05-09T10:35:09.786Z,43.44
2023-05-09T10:36:09.861Z,44.63
2023-05-09T10:37:09.884Z,44.43
2023-05-09T10:38:09.801Z,44.35
2023-05-09T10:39:09.784Z,43.98
2023-05-09T10:40:09.865Z,44.40
2023-05-09T10:41:10.460Z,45.02
2023-05-09T10:42:10.179Z,44.60
2023-05-09T10:43:09.955Z,44.15
2023-05-09T10:44:10.000Z,44.12
2023-05-09T10:45:09.882Z,43.87
2023-05-09T10:46:10.087Z,44.39
2023-05-09T10:47:09.854Z,45.50
2023-05-09T10:48:09.917Z,43.60
2023-05-09T10:49:09.844Z,43.90
2023-05-09T10:50:09.868Z,44.41
2023-05-09T10:51:09.941Z,42.97
2023-05-09T10:52:09.855Z,42.79
2023-05-09T10:53:09.843Z,43.55
2023-05-09T10:54:09.912Z,43.87
2023-05-09T10:55:09.919Z,43.00
2023-05-09T10:56:09.881Z,42.27
2023-05-09T10:57:10.049Z,43.26
2023-05-09T10:58:09.893Z,43.09
2023-05-09T10:59:10.388Z,43.48
2023-05-09T11:00:09.992Z,42.56
2023-05-09T11:01:10.117Z,41.93
2023-05-09T11:02:10.112Z,42.03
2023-05-09T11:03:10.164Z,41.32
2023-05-09T11:04:10.126Z,41.84
2023-05-09T11:05:10.384Z,41.45
2023-05-09T11:06:10.189Z,41.33
2023-05-09T11:07:10.244Z,39.95
2023-05-09T11:08:10.223Z,40.41
2023-05-09T11:09:10.274Z,40.12
2023-05-09T11:10:10.420Z,40.33
2023-05-09T11:11:10.333Z,39.80
2023-05-09T11:12:10.328Z,40.78
2023-05-09T11:13:10.478Z,40.62
2023-05-09T11:14:10.362Z,39.97
2023-05-09T11:15:10.396Z,40.51
2023-05-09T11:16:10.473Z,39.78
2023-05-09T11:17:11.420Z,39.90
2023-05-09T11:18:10.406Z,38.55
2023-05-09T11:19:10.337Z,38.60
2023-05-09T11:20:10.390Z,38.26
2023-05-09T11:21:10.403Z,37.73
2023-05-09T11:22:10.377Z,38.46
2023-05-09T11:23:10.397Z,38.05
2023-05-09T11:24:10.378Z,37.02
2023-05-09T11:25:10.379Z,38.35
2023-05-09T11:26:10.326Z,39.57
2023-05-09T11:27:10.386Z,38.73
2023-05-09T11:28:10.329Z,39.63
2023-05-09T11:29:10.398Z,38.95
2023-05-09T11:30:10.426Z,37.14
2023-05-09T11:31:10.312Z,36.24
2023-05-09T11:32:10.333Z,37.25
2023-05-09T11:33:10.316Z,37.13
2023-05-09T11:34:10.265Z,36.05
2023-05-09T11:35:10.491Z,36.48
2023-05-09T11:36:10.261Z,36.92
2023-05-09T11:37:10.239Z,35.60
2023-05-09T11:38:10.257Z,34.47
2023-05-09T11:39:10.267Z,33.50
2023-05-09T11:40:10.303Z,33.39
2023-05-09T11:41:10.228Z,34.12
2023-05-09T11:42:10.284Z,32.89
2023-05-09T11:43:10.241Z,34.61
2023-05-09T11:44:10.302Z,34.15
2023-05-09T11:45:10.449Z,34.05
2023-05-09T11:46:10.372Z,33.43
2023-05-09T11:47:10.322Z,33.61
2023-05-09T11:48:10.569Z,34.97
2023-05-09T11:49:11.978Z,35.15
2023-05-09T11:50:10.437Z,35.76
2023-05-09T11:51:10.393Z,35.60
2023-05-09T11:52:10.371Z,35.41
2023-05-09T11:53:10.365Z,34.19
2023-05-09T11:54:10.463Z,33.36
2023-05-09T11:55:12.513Z,32.79
2023-05-09T11:56:10.503Z,32.89
2023-05-09T11:57:10.489Z,32.40
2023-05-09T11:58:10.490Z,32.25
2023-05-09T11:59:10.450Z,32.73
2023-05-09T12:00:10.535Z,32.95
2023-05-09T12:01:11.977Z,32.81
2023-05-09T12:02:10.665Z,32.90
2023-05-09T12:03:10.838Z,32.63
2023-05-09T12:04:10.747Z,31.17
2023-05-09T12:05:10.799Z,31.49
2023-05-09T12:06:10.893Z,33.11
2023-05-09T12:07:10.850Z,32.32
2023-05-09T12:08:10.920Z,32.18
2023-05-09T12:09:10.933Z,32.77
2023-05-09T12:10:10.992Z,33.31
2023-05-09T12:11:10.998Z,33.00
2023-05-09T12:12:11.053Z,34.00
2023-05-09T12:13:11.052Z,33.15
2023-05-09T12:14:11.082Z,31.96
2023-05-09T12:15:11.435Z,31.67
2023-05-09T12:16:11.195Z,32.24
2023-05-09T12:17:11.223Z,29.86
2023-05-09T12:18:11.238Z,28.46
2023-05-09T12:19:11.385Z,30.10
2023-05-09T12:20:11.320Z,30.76
2023-05-09T12:22:31.034Z,31.79
2023-05-09T12:23:41.041Z,32.29
2023-05-09T12:24:31.056Z,30.73
2023-05-09T12:25:30.978Z,31.80
2023-05-09T12:26:31.198Z,30.97
2023-05-09T12:27:31.105Z,30.35
2023-05-09T12:28:30.966Z,30.30
2023-05-09T12:29:30.971Z,30.86
2023-05-09T12:30:31.225Z,31.10
2023-05-09T12:31:31.010Z,30.43
2023-05-09T12:32:31.048Z,30.65
2023-05-09T12:33:30.971Z,30.20
2023-05-09T12:34:30.985Z,31.51
2023-05-09T12:35:30.942Z,32.14
2023-05-09T12:36:30.909Z,30.42
2023-05-09T12:37:30.928Z,31.10
2023-05-09T12:38:30.926Z,30.70
2023-05-09T12:39:30.911Z,30.52
2023-05-09T12:40:30.892Z,30.41
2023-05-09T12:41:39.063Z,30.07
2023-05-09T12:42:31.887Z,28.75
2023-05-09T12:43:30.871Z,29.05
2023-05-09T12:44:30.904Z,29.81
2023-05-09T12:45:30.846Z,30.60
2023-05-09T12:46:30.873Z,30.19
2023-05-09T12:47:30.856Z,29.43
2023-05-09T12:48:30.914Z,28.96
2023-05-09T12:49:30.865Z,28.95
2023-05-09T12:50:30.856Z,29.36
2023-05-09T12:51:30.849Z,29.07
2023-05-09T12:52:30.859Z,29.54
2023-05-09T12:53:30.807Z,29.64
2023-05-09T12:54:31.163Z,29.28
2023-05-09T12:55:31.112Z,29.32
2023-05-09T12:56:31.024Z,29.08
2023-05-09T12:57:31.659Z,29.67